sensor_id;sensor_type;location;lat;lon;timestamp;pressure;altitude;pressure_sealevel;temperature;humidity
8051;BME280;4068;42.158;24.732;2023-03-16T00:01:40;98567.94;;;9.75;75.22
8051;BME280;4068;42.158;24.732;2023-03-16T00:04:06;98573.25;;;9.75;75.74
8051;BME280;4068;42.158;24.732;2023-03-16T00:06:31;98572.41;;;9.74;76.40
8051;BME280;4068;42.158;24.732;2023-03-16T00:08:56;98538.75;;;9.57;76.62
8051;BME280;4068;42.158;24.732;2023-03-16T00:11:27;98568.09;;;9.73;77.18
8051;BME280;4068;42.158;24.732;2023-03-16T00:13:52;98548.91;;;9.61;77.49
8051;BME280;4068;42.158;24.732;2023-03-16T00:16:18;98570.19;;;9.79;77.92
8051;BME280;4068;42.158;24.732;2023-03-16T00:18:43;98569.63;;;9.76;78.23
8051;BME280;4068;42.158;24.732;2023-03-16T00:21:13;98572.41;;;9.74;79.13
8051;BME280;4068;42.158;24.732;2023-03-16T00:23:39;98567.41;;;9.71;79.71
8051;BME280;4068;42.158;24.732;2023-03-16T00:26:07;98571.31;;;9.67;80.96
8051;BME280;4068;42.158;24.732;2023-03-16T00:28:33;98566.97;;;9.76;81.49
8051;BME280;4068;42.158;24.732;2023-03-16T00:31:10;98566.81;;;9.87;81.57
8051;BME280;4068;42.158;24.732;2023-03-16T00:33:39;98564.47;;;9.74;82.27
8051;BME280;4068;42.158;24.732;2023-03-16T00:36:07;98566.00;;;9.87;82.64
8051;BME280;4068;42.158;24.732;2023-03-16T00:38:35;98555.84;;;9.82;82.98
8051;BME280;4068;42.158;24.732;2023-03-16T00:41:02;98564.47;;;9.84;83.56
8051;BME280;4068;42.158;24.732;2023-03-16T00:43:29;98562.09;;;9.91;83.80
8051;BME280;4068;42.158;24.732;2023-03-16T00:45:59;98564.44;;;9.94;84.05
8051;BME280;4068;42.158;24.732;2023-03-16T00:48:31;98562.78;;;9.93;84.31
8051;BME280;4068;42.158;24.732;2023-03-16T00:51:01;98569.59;;;9.95;84.94
8051;BME280;4068;42.158;24.732;2023-03-16T00:53:29;98576.31;;;9.90;85.55
8051;BME280;4068;42.158;24.732;2023-03-16T00:55:55;98581.03;;;9.86;86.24
8051;BME280;4068;42.158;24.732;2023-03-16T00:58:20;98577.84;;;9.92;86.85
8051;BME280;4068;42.158;24.732;2023-03-16T01:00:47;98581.03;;;9.96;86.93
8051;BME280;4068;42.158;24.732;2023-03-16T01:03:13;98569.19;;;9.80;87.68
8051;BME280;4068;42.158;24.732;2023-03-16T01:05:40;98575.75;;;9.86;87.85
8051;BME280;4068;42.158;24.732;2023-03-16T01:08:07;98571.03;;;9.80;89.03
8051;BME280;4068;42.158;24.732;2023-03-16T01:10:34;98593.16;;;9.98;89.52
8051;BME280;4068;42.158;24.732;2023-03-16T01:12:59;98594.69;;;10.01;90.22
8051;BME280;4068;42.158;24.732;2023-03-16T01:15:28;98576.56;;;9.96;90.63
8051;BME280;4068;42.158;24.732;2023-03-16T01:17:53;98595.09;;;10.06;90.98
8051;BME280;4068;42.158;24.732;2023-03-16T01:20:19;98601.63;;;10.12;91.15
8051;BME280;4068;42.158;24.732;2023-03-16T01:22:44;98598.84;;;10.13;91.56
8051;BME280;4068;42.158;24.732;2023-03-16T01:25:11;98599.25;;;10.09;91.91
8051;BME280;4068;42.158;24.732;2023-03-16T01:27:36;98603.88;;;10.07;91.67
8051;BME280;4068;42.158;24.732;2023-03-16T01:30:03;98610.84;;;10.08;91.78
8051;BME280;4068;42.158;24.732;2023-03-16T01:32:29;98609.19;;;9.97;91.52
8051;BME280;4068;42.158;24.732;2023-03-16T01:34:55;98617.56;;;9.92;90.71
8051;BME280;4068;42.158;24.732;2023-03-16T01:37:20;98587.50;;;9.64;89.81
8051;BME280;4068;42.158;24.732;2023-03-16T01:39:47;98614.22;;;9.80;90.22
8051;BME280;4068;42.158;24.732;2023-03-16T01:42:13;98597.38;;;9.62;90.40
8051;BME280;4068;42.158;24.732;2023-03-16T01:45:51;98611.84;;;9.67;90.43
8051;BME280;4068;42.158;24.732;2023-03-16T01:47:53;98617.28;;;9.56;89.64
8051;BME280;4068;42.158;24.732;2023-03-16T01:50:19;98612.56;;;9.40;89.75
8051;BME280;4068;42.158;24.732;2023-03-16T01:52:44;98593.91;;;9.22;88.58
8051;BME280;4068;42.158;24.732;2023-03-16T01:55:10;98628.31;;;9.32;89.46
8051;BME280;4068;42.158;24.732;2023-03-16T01:57:42;98624.97;;;9.30;88.27
8051;BME280;4068;42.158;24.732;2023-03-16T02:00:12;98612.94;;;9.06;88.62
8051;BME280;4068;42.158;24.732;2023-03-16T02:02:47;98623.53;;;9.16;88.00
8051;BME280;4068;42.158;24.732;2023-03-16T02:05:23;98636.06;;;9.04;87.82
8051;BME280;4068;42.158;24.732;2023-03-16T02:07:51;98632.28;;;8.97;88.09
8051;BME280;4068;42.158;24.732;2023-03-16T02:10:24;98645.50;;;8.97;88.15
8051;BME280;4068;42.158;24.732;2023-03-16T02:12:51;98608.84;;;8.73;87.87
8051;BME280;4068;42.158;24.732;2023-03-16T02:15:17;98647.44;;;8.95;87.98
8051;BME280;4068;42.158;24.732;2023-03-16T02:17:44;98659.00;;;8.94;87.64
8051;BME280;4068;42.158;24.732;2023-03-16T02:20:32;98664.00;;;8.97;87.31
8051;BME280;4068;42.158;24.732;2023-03-16T02:23:00;98668.59;;;8.95;87.04
8051;BME280;4068;42.158;24.732;2023-03-16T02:25:48;98665.66;;;8.88;87.37
8051;BME280;4068;42.158;24.732;2023-03-16T02:28:23;98660.06;;;8.81;87.31
8051;BME280;4068;42.158;24.732;2023-03-16T02:30:50;98664.38;;;8.83;87.54
8051;BME280;4068;42.158;24.732;2023-03-16T02:33:16;98673.72;;;8.87;87.73
8051;BME280;4068;42.158;24.732;2023-03-16T02:35:42;98672.88;;;8.86;87.93
8051;BME280;4068;42.158;24.732;2023-03-16T02:38:08;98673.16;;;8.83;87.97
8051;BME280;4068;42.158;24.732;2023-03-16T02:40:34;98670.50;;;8.83;87.89
8051;BME280;4068;42.158;24.732;2023-03-16T02:43:06;98673.97;;;8.74;88.19
8051;BME280;4068;42.158;24.732;2023-03-16T02:45:45;98681.34;;;8.80;87.55
8051;BME280;4068;42.158;24.732;2023-03-16T02:48:18;98683.31;;;8.78;87.40
8051;BME280;4068;42.158;24.732;2023-03-16T02:50:48;98663.22;;;8.66;86.62
8051;BME280;4068;42.158;24.732;2023-03-16T02:53:15;98679.63;;;8.69;86.66
8051;BME280;4068;42.158;24.732;2023-03-16T02:55:40;98686.16;;;8.65;86.23
8051;BME280;4068;42.158;24.732;2023-03-16T02:58:06;98692.56;;;8.62;86.54
8051;BME280;4068;42.158;24.732;2023-03-16T03:00:31;98699.63;;;8.62;86.54
8051;BME280;4068;42.158;24.732;2023-03-16T03:02:57;98688.31;;;8.50;86.15
8051;BME280;4068;42.158;24.732;2023-03-16T03:05:23;98695.84;;;8.55;85.26
8051;BME280;4068;42.158;24.732;2023-03-16T03:07:48;98702.63;;;8.48;85.69
8051;BME280;4068;42.158;24.732;2023-03-16T03:10:14;98698.34;;;8.35;85.67
8051;BME280;4068;42.158;24.732;2023-03-16T03:12:39;98724.84;;;8.45;85.33
8051;BME280;4068;42.158;24.732;2023-03-16T03:15:05;98704.41;;;8.26;85.15
8051;BME280;4068;42.158;24.732;2023-03-16T03:17:31;98728.63;;;8.31;85.41
8051;BME280;4068;42.158;24.732;2023-03-16T03:19:58;98698.34;;;8.14;85.72
8051;BME280;4068;42.158;24.732;2023-03-16T03:22:25;98738.66;;;8.16;86.18
8051;BME280;4068;42.158;24.732;2023-03-16T03:24:51;98715.34;;;8.00;86.54
8051;BME280;4068;42.158;24.732;2023-03-16T03:27:18;98743.13;;;8.16;86.05
8051;BME280;4068;42.158;24.732;2023-03-16T03:29:43;98746.78;;;8.03;86.45
8051;BME280;4068;42.158;24.732;2023-03-16T03:32:09;98742.22;;;8.05;87.14
8051;BME280;4068;42.158;24.732;2023-03-16T03:34:35;98747.03;;;8.00;86.83
8051;BME280;4068;42.158;24.732;2023-03-16T03:37:00;98749.41;;;8.03;86.78
8051;BME280;4068;42.158;24.732;2023-03-16T03:39:26;98748.00;;;7.99;86.86
8051;BME280;4068;42.158;24.732;2023-03-16T03:41:51;98761.31;;;7.98;87.56
8051;BME280;4068;42.158;24.732;2023-03-16T03:44:19;98765.91;;;7.95;87.47
8051;BME280;4068;42.158;24.732;2023-03-16T03:46:46;98768.06;;;7.90;88.46
8051;BME280;4068;42.158;24.732;2023-03-16T03:49:11;98761.09;;;7.89;88.24
8051;BME280;4068;42.158;24.732;2023-03-16T03:51:37;98761.84;;;7.91;87.90
8051;BME280;4068;42.158;24.732;2023-03-16T03:54:02;98778.63;;;7.90;88.31
8051;BME280;4068;42.158;24.732;2023-03-16T03:56:28;98765.34;;;7.81;88.77
8051;BME280;4068;42.158;24.732;2023-03-16T03:58:53;98777.44;;;7.83;88.54
8051;BME280;4068;42.158;24.732;2023-03-16T04:01:19;98771.22;;;7.84;88.32
8051;BME280;4068;42.158;24.732;2023-03-16T04:03:45;98782.72;;;7.83;88.17
8051;BME280;4068;42.158;24.732;2023-03-16T04:06:10;98784.78;;;7.80;87.68
8051;BME280;4068;42.158;24.732;2023-03-16T04:08:36;98757.69;;;7.66;87.81
8051;BME280;4068;42.158;24.732;2023-03-16T04:11:01;98782.16;;;7.80;88.51
8051;BME280;4068;42.158;24.732;2023-03-16T04:13:26;98772.31;;;7.70;87.92
8051;BME280;4068;42.158;24.732;2023-03-16T04:15:59;98775.66;;;7.72;88.25
8051;BME280;4068;42.158;24.732;2023-03-16T04:18:27;98777.22;;;7.75;88.65
8051;BME280;4068;42.158;24.732;2023-03-16T04:20:53;98782.41;;;7.65;87.82
8051;BME280;4068;42.158;24.732;2023-03-16T04:23:20;98793.56;;;7.69;87.28
8051;BME280;4068;42.158;24.732;2023-03-16T04:25:46;98787.81;;;7.52;87.13
8051;BME280;4068;42.158;24.732;2023-03-16T04:28:12;98781.97;;;7.49;87.65
8051;BME280;4068;42.158;24.732;2023-03-16T04:30:37;98772.38;;;7.36;87.33
8051;BME280;4068;42.158;24.732;2023-03-16T04:33:03;98811.69;;;7.51;87.32
8051;BME280;4068;42.158;24.732;2023-03-16T04:35:28;98810.03;;;7.50;87.03
8051;BME280;4068;42.158;24.732;2023-03-16T04:37:54;98812.91;;;7.47;87.31
8051;BME280;4068;42.158;24.732;2023-03-16T04:40:19;98810.50;;;7.43;86.73
8051;BME280;4068;42.158;24.732;2023-03-16T04:42:45;98800.69;;;7.46;87.28
8051;BME280;4068;42.158;24.732;2023-03-16T04:45:12;98824.31;;;7.47;85.61
8051;BME280;4068;42.158;24.732;2023-03-16T04:47:38;98789.78;;;7.39;85.53
8051;BME280;4068;42.158;24.732;2023-03-16T04:50:05;98805.25;;;7.32;84.35
8051;BME280;4068;42.158;24.732;2023-03-16T04:52:31;98828.84;;;7.45;84.90
8051;BME280;4068;42.158;24.732;2023-03-16T04:54:57;98840.50;;;7.42;84.04
8051;BME280;4068;42.158;24.732;2023-03-16T04:57:22;98833.78;;;7.38;83.85
8051;BME280;4068;42.158;24.732;2023-03-16T04:59:48;98834.38;;;7.42;83.72
8051;BME280;4068;42.158;24.732;2023-03-16T05:02:14;98842.78;;;7.47;83.39
8051;BME280;4068;42.158;24.732;2023-03-16T05:04:41;98844.94;;;7.42;83.24
8051;BME280;4068;42.158;24.732;2023-03-16T05:07:06;98852.97;;;7.40;83.08
8051;BME280;4068;42.158;24.732;2023-03-16T05:09:32;98851.78;;;7.45;82.31
8051;BME280;4068;42.158;24.732;2023-03-16T05:11:57;98867.34;;;7.36;81.90
8051;BME280;4068;42.158;24.732;2023-03-16T05:14:23;98853.44;;;7.23;81.50
8051;BME280;4068;42.158;24.732;2023-03-16T05:16:48;98862.81;;;7.27;81.02
8051;BME280;4068;42.158;24.732;2023-03-16T05:19:14;98874.19;;;7.28;81.12
8051;BME280;4068;42.158;24.732;2023-03-16T05:21:39;98858.22;;;7.18;80.21
8051;BME280;4068;42.158;24.732;2023-03-16T05:24:05;98881.38;;;7.25;80.52
8051;BME280;4068;42.158;24.732;2023-03-16T05:26:31;98885.34;;;7.31;80.16
8051;BME280;4068;42.158;24.732;2023-03-16T05:28:57;98884.13;;;7.35;79.17
8051;BME280;4068;42.158;24.732;2023-03-16T05:31:22;98896.38;;;7.36;78.38
8051;BME280;4068;42.158;24.732;2023-03-16T05:33:51;98900.69;;;7.37;78.67
8051;BME280;4068;42.158;24.732;2023-03-16T05:36:17;98904.91;;;7.40;78.42
8051;BME280;4068;42.158;24.732;2023-03-16T05:38:42;98902.94;;;7.31;77.99
8051;BME280;4068;42.158;24.732;2023-03-16T05:41:08;98901.19;;;7.31;77.97
8051;BME280;4068;42.158;24.732;2023-03-16T05:43:33;98907.88;;;7.35;77.53
8051;BME280;4068;42.158;24.732;2023-03-16T05:45:59;98908.59;;;7.37;77.78
8051;BME280;4068;42.158;24.732;2023-03-16T05:48:24;98913.25;;;7.34;77.00
8051;BME280;4068;42.158;24.732;2023-03-16T05:50:50;98869.25;;;7.12;76.49
8051;BME280;4068;42.158;24.732;2023-03-16T05:53:16;98908.47;;;7.28;76.60
8051;BME280;4068;42.158;24.732;2023-03-16T05:55:42;98920.47;;;7.32;76.52
8051;BME280;4068;42.158;24.732;2023-03-16T05:58:07;98916.63;;;7.36;75.99
8051;BME280;4068;42.158;24.732;2023-03-16T06:00:32;98934.03;;;7.38;76.15
8051;BME280;4068;42.158;24.732;2023-03-16T06:02:58;98910.59;;;7.22;76.47
8051;BME280;4068;42.158;24.732;2023-03-16T06:05:24;98932.22;;;7.39;76.34
8051;BME280;4068;42.158;24.732;2023-03-16T06:07:50;98929.72;;;7.37;76.30
8051;BME280;4068;42.158;24.732;2023-03-16T06:10:16;98942.78;;;7.50;75.84
8051;BME280;4068;42.158;24.732;2023-03-16T06:12:42;98947.34;;;7.48;75.32
8051;BME280;4068;42.158;24.732;2023-03-16T06:15:08;98950.94;;;7.47;75.38
8051;BME280;4068;42.158;24.732;2023-03-16T06:17:35;98928.97;;;7.47;74.93
8051;BME280;4068;42.158;24.732;2023-03-16T06:20:02;98956.25;;;7.58;75.11
8051;BME280;4068;42.158;24.732;2023-03-16T06:22:33;98946.25;;;7.51;74.73
8051;BME280;4068;42.158;24.732;2023-03-16T06:24:59;98949.97;;;7.59;74.44
8051;BME280;4068;42.158;24.732;2023-03-16T06:27:24;98964.63;;;7.64;73.07
8051;BME280;4068;42.158;24.732;2023-03-16T06:29:50;98969.91;;;7.64;73.18
8051;BME280;4068;42.158;24.732;2023-03-16T06:32:15;98954.91;;;7.64;72.64
8051;BME280;4068;42.158;24.732;2023-03-16T06:34:41;98941.84;;;7.63;72.24
8051;BME280;4068;42.158;24.732;2023-03-16T06:37:06;98936.81;;;7.48;72.31
8051;BME280;4068;42.158;24.732;2023-03-16T06:39:32;98946.16;;;7.64;72.37
8051;BME280;4068;42.158;24.732;2023-03-16T06:41:57;98981.44;;;7.85;70.53
8051;BME280;4068;42.158;24.732;2023-03-16T06:44:23;98978.19;;;7.93;70.73
8051;BME280;4068;42.158;24.732;2023-03-16T06:46:48;98980.59;;;7.96;69.78
8051;BME280;4068;42.158;24.732;2023-03-16T06:49:14;98982.88;;;7.89;70.19
8051;BME280;4068;42.158;24.732;2023-03-16T06:51:39;99000.03;;;7.95;70.48
8051;BME280;4068;42.158;24.732;2023-03-16T06:54:06;98995.47;;;7.97;69.80
8051;BME280;4068;42.158;24.732;2023-03-16T06:56:31;99000.63;;;7.99;69.83
8051;BME280;4068;42.158;24.732;2023-03-16T06:58:56;99004.22;;;7.98;70.09
8051;BME280;4068;42.158;24.732;2023-03-16T07:01:22;99005.69;;;8.02;69.71
8051;BME280;4068;42.158;24.732;2023-03-16T07:03:48;99016.25;;;8.02;69.00
8051;BME280;4068;42.158;24.732;2023-03-16T07:06:14;99017.06;;;8.13;68.88
8051;BME280;4068;42.158;24.732;2023-03-16T07:08:39;99028.25;;;8.17;68.68
8051;BME280;4068;42.158;24.732;2023-03-16T07:11:07;99012.28;;;8.07;68.89
8051;BME280;4068;42.158;24.732;2023-03-16T07:13:32;99025.34;;;8.20;68.77
8051;BME280;4068;42.158;24.732;2023-03-16T07:15:59;99029.44;;;8.24;68.78
8051;BME280;4068;42.158;24.732;2023-03-16T07:18:25;99035.78;;;8.22;68.25
8051;BME280;4068;42.158;24.732;2023-03-16T07:20:52;99035.91;;;8.20;68.68
8051;BME280;4068;42.158;24.732;2023-03-16T07:23:17;99032.31;;;8.21;68.59
8051;BME280;4068;42.158;24.732;2023-03-16T07:25:43;99040.50;;;8.18;68.60
8051;BME280;4068;42.158;24.732;2023-03-16T07:28:09;99036.28;;;8.16;68.39
8051;BME280;4068;42.158;24.732;2023-03-16T07:30:35;99044.91;;;8.18;68.18
8051;BME280;4068;42.158;24.732;2023-03-16T07:33:01;99046.50;;;8.20;68.50
8051;BME280;4068;42.158;24.732;2023-03-16T07:35:26;99028.59;;;8.01;68.71
8051;BME280;4068;42.158;24.732;2023-03-16T07:37:52;99051.41;;;8.13;69.04
8051;BME280;4068;42.158;24.732;2023-03-16T07:40:18;99040.00;;;8.13;68.72
8051;BME280;4068;42.158;24.732;2023-03-16T07:42:43;99039.50;;;8.19;68.91
8051;BME280;4068;42.158;24.732;2023-03-16T07:45:09;99036.28;;;8.27;68.71
8051;BME280;4068;42.158;24.732;2023-03-16T07:47:36;99031.59;;;8.30;68.62
8051;BME280;4068;42.158;24.732;2023-03-16T07:50:03;99042.66;;;8.47;68.40
8051;BME280;4068;42.158;24.732;2023-03-16T07:52:28;99038.69;;;8.53;68.39
8051;BME280;4068;42.158;24.732;2023-03-16T07:54:54;99030.47;;;8.67;67.88
8051;BME280;4068;42.158;24.732;2023-03-16T07:57:20;99053.03;;;8.83;67.67
8051;BME280;4068;42.158;24.732;2023-03-16T07:59:46;99033.19;;;8.88;66.08
8051;BME280;4068;42.158;24.732;2023-03-16T08:02:14;99027.75;;;9.01;65.42
8051;BME280;4068;42.158;24.732;2023-03-16T08:04:40;99033.00;;;9.12;63.35
8051;BME280;4068;42.158;24.732;2023-03-16T08:07:10;99059.66;;;9.21;63.10
8051;BME280;4068;42.158;24.732;2023-03-16T08:09:36;99016.84;;;9.15;62.79
8051;BME280;4068;42.158;24.732;2023-03-16T08:12:02;99059.47;;;9.55;62.33
8051;BME280;4068;42.158;24.732;2023-03-16T08:14:29;99037.53;;;9.64;61.67
8051;BME280;4068;42.158;24.732;2023-03-16T08:16:54;99050.50;;;9.88;61.01
8051;BME280;4068;42.158;24.732;2023-03-16T08:19:20;99048.66;;;9.89;60.44
8051;BME280;4068;42.158;24.732;2023-03-16T08:21:45;99039.81;;;9.99;59.57
8051;BME280;4068;42.158;24.732;2023-03-16T08:24:11;99031.56;;;9.93;58.94
8051;BME280;4068;42.158;24.732;2023-03-16T08:26:36;99023.91;;;9.99;58.88
8051;BME280;4068;42.158;24.732;2023-03-16T08:29:02;99067.16;;;10.31;58.15
8051;BME280;4068;42.158;24.732;2023-03-16T08:31:28;99060.22;;;10.40;58.32
8051;BME280;4068;42.158;24.732;2023-03-16T08:33:55;99050.94;;;10.55;57.32
8051;BME280;4068;42.158;24.732;2023-03-16T08:36:21;99060.56;;;10.56;57.01
8051;BME280;4068;42.158;24.732;2023-03-16T08:38:47;99079.09;;;10.46;57.05
8051;BME280;4068;42.158;24.732;2023-03-16T08:41:12;99086.78;;;10.49;56.60
8051;BME280;4068;42.158;24.732;2023-03-16T08:43:40;99075.91;;;10.52;57.28
8051;BME280;4068;42.158;24.732;2023-03-16T08:46:06;99091.84;;;10.62;56.92
8051;BME280;4068;42.158;24.732;2023-03-16T08:48:32;99078.63;;;10.82;56.07
8051;BME280;4068;42.158;24.732;2023-03-16T08:51:03;99057.16;;;10.85;55.73
8051;BME280;4068;42.158;24.732;2023-03-16T08:53:30;99089.44;;;11.29;54.65
8051;BME280;4068;42.158;24.732;2023-03-16T08:56:07;99083.56;;;11.35;54.46
8051;BME280;4068;42.158;24.732;2023-03-16T08:58:34;99057.31;;;11.42;53.93
8051;BME280;4068;42.158;24.732;2023-03-16T09:01:01;99080.75;;;11.66;53.25
8051;BME280;4068;42.158;24.732;2023-03-16T09:03:27;99050.31;;;11.61;52.59
8051;BME280;4068;42.158;24.732;2023-03-16T09:05:53;99065.63;;;11.86;52.11
8051;BME280;4068;42.158;24.732;2023-03-16T09:08:24;99081.41;;;12.07;51.88
8051;BME280;4068;42.158;24.732;2023-03-16T09:10:49;99090.09;;;12.00;51.99
8051;BME280;4068;42.158;24.732;2023-03-16T09:13:15;99083.91;;;12.09;51.82
8051;BME280;4068;42.158;24.732;2023-03-16T09:15:40;99087.56;;;12.08;50.91
8051;BME280;4068;42.158;24.732;2023-03-16T09:18:07;99089.78;;;12.13;51.65
8051;BME280;4068;42.158;24.732;2023-03-16T09:20:32;99096.50;;;12.07;51.38
8051;BME280;4068;42.158;24.732;2023-03-16T09:22:58;99087.22;;;12.21;51.02
8051;BME280;4068;42.158;24.732;2023-03-16T09:25:24;99086.59;;;12.37;51.15
8051;BME280;4068;42.158;24.732;2023-03-16T09:27:50;99084.31;;;12.52;49.88
8051;BME280;4068;42.158;24.732;2023-03-16T09:30:15;99066.72;;;12.41;49.96
8051;BME280;4068;42.158;24.732;2023-03-16T09:32:41;99083.34;;;12.53;49.85
8051;BME280;4068;42.158;24.732;2023-03-16T09:35:07;99063.97;;;12.60;49.67
8051;BME280;4068;42.158;24.732;2023-03-16T09:37:33;99090.78;;;12.77;49.13
8051;BME280;4068;42.158;24.732;2023-03-16T09:39:58;99087.22;;;12.86;48.55
8051;BME280;4068;42.158;24.732;2023-03-16T09:42:41;99096.97;;;12.95;47.76
8051;BME280;4068;42.158;24.732;2023-03-16T09:45:13;99099.44;;;12.79;48.51
8051;BME280;4068;42.158;24.732;2023-03-16T09:47:42;99098.44;;;12.52;48.93
8051;BME280;4068;42.158;24.732;2023-03-16T09:50:20;99092.16;;;12.53;49.93
8051;BME280;4068;42.158;24.732;2023-03-16T09:53:03;99063.47;;;12.75;48.39
8051;BME280;4068;42.158;24.732;2023-03-16T09:55:35;99065.69;;;12.80;47.98
8051;BME280;4068;42.158;24.732;2023-03-16T09:58:04;99068.84;;;12.93;47.97
8051;BME280;4068;42.158;24.732;2023-03-16T10:06:10;99089.56;;;12.71;48.70
8051;BME280;4068;42.158;24.732;2023-03-16T10:08:39;99102.03;;;12.61;48.77
8051;BME280;4068;42.158;24.732;2023-03-16T10:13:57;99100.06;;;12.91;48.29
8051;BME280;4068;42.158;24.732;2023-03-16T10:16:39;99098.47;;;12.98;47.64
8051;BME280;4068;42.158;24.732;2023-03-16T10:19:32;99091.59;;;13.23;47.51
8051;BME280;4068;42.158;24.732;2023-03-16T10:21:59;99087.28;;;13.40;47.11
8051;BME280;4068;42.158;24.732;2023-03-16T10:27:02;99098.53;;;13.52;45.58
8051;BME280;4068;42.158;24.732;2023-03-16T10:29:31;99092.91;;;13.55;46.04
8051;BME280;4068;42.158;24.732;2023-03-16T10:32:10;99080.13;;;13.59;46.12
8051;BME280;4068;42.158;24.732;2023-03-16T10:34:37;99090.75;;;13.77;45.86
8051;BME280;4068;42.158;24.732;2023-03-16T10:37:04;99092.38;;;13.70;46.17
8051;BME280;4068;42.158;24.732;2023-03-16T10:39:35;99095.34;;;13.93;45.74
8051;BME280;4068;42.158;24.732;2023-03-16T10:42:01;99089.50;;;14.15;45.36
8051;BME280;4068;42.158;24.732;2023-03-16T10:44:27;99082.88;;;14.54;44.39
8051;BME280;4068;42.158;24.732;2023-03-16T10:49:37;99056.38;;;14.18;44.22
8051;BME280;4068;42.158;24.732;2023-03-16T10:55:16;99068.28;;;14.06;45.12
8051;BME280;4068;42.158;24.732;2023-03-16T10:57:54;99091.31;;;14.41;44.63
8051;BME280;4068;42.158;24.732;2023-03-16T11:00:34;99087.94;;;14.31;43.76
8051;BME280;4068;42.158;24.732;2023-03-16T11:03:00;99084.22;;;14.24;44.54
8051;BME280;4068;42.158;24.732;2023-03-16T11:05:36;99054.84;;;13.89;44.64
8051;BME280;4068;42.158;24.732;2023-03-16T11:10:37;99084.00;;;13.64;45.56
8051;BME280;4068;42.158;24.732;2023-03-16T11:13:11;99091.97;;;13.83;45.61
8051;BME280;4068;42.158;24.732;2023-03-16T11:15:45;99081.16;;;13.84;45.70
8051;BME280;4068;42.158;24.732;2023-03-16T11:18:27;99084.53;;;13.50;46.29
8051;BME280;4068;42.158;24.732;2023-03-16T11:20:54;99085.81;;;13.64;46.35
8051;BME280;4068;42.158;24.732;2023-03-16T11:23:27;99063.69;;;13.45;45.91
8051;BME280;4068;42.158;24.732;2023-03-16T11:25:57;99078.81;;;13.45;46.22
8051;BME280;4068;42.158;24.732;2023-03-16T11:31:17;99076.88;;;13.47;46.25
8051;BME280;4068;42.158;24.732;2023-03-16T11:33:45;99081.44;;;13.37;46.06
8051;BME280;4068;42.158;24.732;2023-03-16T11:36:34;99085.56;;;13.03;46.49
8051;BME280;4068;42.158;24.732;2023-03-16T11:44:31;99085.72;;;13.02;47.15
8051;BME280;4068;42.158;24.732;2023-03-16T11:49:56;99079.03;;;12.98;46.97
8051;BME280;4068;42.158;24.732;2023-03-16T11:52:50;99083.44;;;13.25;46.66
8051;BME280;4068;42.158;24.732;2023-03-16T11:58:02;99074.31;;;13.63;45.81
8051;BME280;4068;42.158;24.732;2023-03-16T12:00:43;99084.22;;;13.71;45.75
8051;BME280;4068;42.158;24.732;2023-03-16T12:11:26;99086.22;;;13.95;45.39
8051;BME280;4068;42.158;24.732;2023-03-16T12:16:51;99058.53;;;13.88;44.95
8051;BME280;4068;42.158;24.732;2023-03-16T12:19:40;99095.00;;;14.14;44.45
8051;BME280;4068;42.158;24.732;2023-03-16T12:22:26;99093.66;;;14.10;44.58
8051;BME280;4068;42.158;24.732;2023-03-16T12:24:53;99087.94;;;14.05;44.06
8051;BME280;4068;42.158;24.732;2023-03-16T12:27:32;99107.56;;;14.04;44.49
8051;BME280;4068;42.158;24.732;2023-03-16T12:40:55;99103.69;;;13.54;45.45
8051;BME280;4068;42.158;24.732;2023-03-16T12:43:38;99105.44;;;13.27;46.16
8051;BME280;4068;42.158;24.732;2023-03-16T12:46:13;99110.31;;;13.32;46.10
8051;BME280;4068;42.158;24.732;2023-03-16T12:48:48;99077.50;;;13.13;46.01
8051;BME280;4068;42.158;24.732;2023-03-16T12:51:17;99114.66;;;13.33;46.17
8051;BME280;4068;42.158;24.732;2023-03-16T12:56:43;99119.41;;;13.57;46.06
8051;BME280;4068;42.158;24.732;2023-03-16T12:59:24;99095.50;;;13.47;45.54
8051;BME280;4068;42.158;24.732;2023-03-16T13:02:01;99125.56;;;13.39;46.25
8051;BME280;4068;42.158;24.732;2023-03-16T13:04:38;99110.44;;;13.40;46.21
8051;BME280;4068;42.158;24.732;2023-03-16T13:07:14;99127.69;;;13.36;46.29
8051;BME280;4068;42.158;24.732;2023-03-16T13:09:44;99115.66;;;13.04;46.51
8051;BME280;4068;42.158;24.732;2023-03-16T13:12:31;99129.06;;;12.94;46.99
8051;BME280;4068;42.158;24.732;2023-03-16T13:14:57;99126.19;;;12.77;47.39
8051;BME280;4068;42.158;24.732;2023-03-16T13:17:29;99136.78;;;12.87;47.76
8051;BME280;4068;42.158;24.732;2023-03-16T13:20:00;99133.91;;;12.71;48.02
8051;BME280;4068;42.158;24.732;2023-03-16T13:22:47;99131.16;;;12.63;48.00
8051;BME280;4068;42.158;24.732;2023-03-16T13:25:24;99148.13;;;12.62;47.80
8051;BME280;4068;42.158;24.732;2023-03-16T13:28:00;99141.75;;;12.45;48.47
8051;BME280;4068;42.158;24.732;2023-03-16T13:30:30;99146.78;;;12.38;48.84
8051;BME280;4068;42.158;24.732;2023-03-16T13:33:14;99153.34;;;12.43;48.86
8051;BME280;4068;42.158;24.732;2023-03-16T13:35:41;99132.88;;;12.06;49.30
8051;BME280;4068;42.158;24.732;2023-03-16T13:38:13;99172.06;;;11.95;50.25
8051;BME280;4068;42.158;24.732;2023-03-16T13:40:49;99163.78;;;11.78;50.52
8051;BME280;4068;42.158;24.732;2023-03-16T13:43:18;99129.00;;;11.52;50.94
8051;BME280;4068;42.158;24.732;2023-03-16T13:45:46;99163.94;;;11.47;51.27
8051;BME280;4068;42.158;24.732;2023-03-16T13:48:15;99179.44;;;11.42;51.72
8051;BME280;4068;42.158;24.732;2023-03-16T13:50:42;99171.56;;;11.21;52.00
8051;BME280;4068;42.158;24.732;2023-03-16T13:53:38;99181.00;;;10.94;53.15
8051;BME280;4068;42.158;24.732;2023-03-16T13:56:04;99179.88;;;10.97;53.75
8051;BME280;4068;42.158;24.732;2023-03-16T13:58:35;99183.78;;;10.93;53.74
8051;BME280;4068;42.158;24.732;2023-03-16T14:01:27;99159.41;;;10.68;53.59
8051;BME280;4068;42.158;24.732;2023-03-16T14:04:00;99191.66;;;10.63;54.58
8051;BME280;4068;42.158;24.732;2023-03-16T14:06:33;99191.94;;;10.70;54.64
8051;BME280;4068;42.158;24.732;2023-03-16T14:09:03;99181.38;;;10.49;54.86
8051;BME280;4068;42.158;24.732;2023-03-16T14:11:29;99202.47;;;10.50;55.15
8051;BME280;4068;42.158;24.732;2023-03-16T14:13:56;99208.81;;;10.38;55.47
8051;BME280;4068;42.158;24.732;2023-03-16T14:16:25;99192.59;;;10.20;56.36
8051;BME280;4068;42.158;24.732;2023-03-16T14:18:59;99213.84;;;10.41;56.33
8051;BME280;4068;42.158;24.732;2023-03-16T14:21:28;99209.53;;;10.29;56.10
8051;BME280;4068;42.158;24.732;2023-03-16T14:26:23;99218.47;;;10.07;57.15